Time;durP1;ratioP1;P1;durP2;ratioP2;P2;SDS_P1;SDS_P2;PMS_P1;PMS_P2;Temp;Humidity;BMP_temperature;BMP_pressure;BME280_temperature;BME280_humidity;BME280_pressure;Samples;Min_cycle;Max_cycle;Signal;HPM_P1;HPM_P2
2024/03/07 00:02:09;;;;;;;27.40;8.75;;;5.60;99.90;;;;;;5002013;28;20187;-84
2024/03/07 00:04:36;;;;;;;23.73;7.43;;;5.50;99.90;;;;;;5001944;28;20167;-84
2024/03/07 00:07:03;;;;;;;24.50;6.32;;;5.60;99.90;;;;;;4984817;28;20269;-84
2024/03/07 00:09:31;;;;;;;24.70;7.60;;;5.50;99.90;;;;;;5002355;28;20166;-84
2024/03/07 00:11:57;;;;;;;27.45;8.57;;;5.50;99.90;;;;;;4982109;28;20191;-84
2024/03/07 00:14:26;;;;;;;23.93;7.37;;;5.40;99.90;;;;;;4999534;28;20174;-84
2024/03/07 00:16:53;;;;;;;25.77;8.07;;;5.40;99.90;;;;;;4998632;28;20409;-84
2024/03/07 00:19:18;;;;;;;28.20;6.95;;;5.40;99.90;;;;;;4998638;28;20682;-83
2024/03/07 00:21:44;;;;;;;22.17;6.80;;;5.30;99.90;;;;;;4997632;28;20252;-84
2024/03/07 00:24:10;;;;;;;23.97;7.40;;;5.30;99.90;;;;;;4997904;28;20243;-83
2024/03/07 00:26:36;;;;;;;21.50;6.77;;;5.30;99.90;;;;;;4998600;28;20237;-83
2024/03/07 00:29:02;;;;;;;25.37;7.27;;;5.30;99.90;;;;;;4998344;28;20406;-84
2024/03/07 00:31:30;;;;;;;23.52;8.57;;;5.20;99.90;;;;;;4980632;28;20199;-84
2024/03/07 00:33:56;;;;;;;22.38;7.40;;;5.20;99.90;;;;;;4998138;28;20168;-83
2024/03/07 00:36:22;;;;;;;20.92;6.10;;;5.20;99.90;;;;;;4998278;28;20167;-83
2024/03/07 00:38:51;;;;;;;26.97;7.63;;;5.10;99.90;;;;;;4998222;28;20214;-83
2024/03/07 00:41:17;;;;;;;27.90;8.02;;;5.10;99.90;;;;;;4997425;28;20565;-83
2024/03/07 00:43:43;;;;;;;27.17;7.80;;;5.10;99.90;;;;;;4995899;28;20167;-83
2024/03/07 00:46:10;;;;;;;26.65;8.55;;;5.10;99.90;;;;;;4997572;28;20207;-83
2024/03/07 00:48:36;;;;;;;26.17;7.75;;;5.10;99.90;;;;;;4997396;28;20166;-84
2024/03/07 00:51:29;;;;;;;28.20;8.95;;;5.10;99.90;;;;;;4997622;28;20203;-84
2024/03/07 00:53:54;;;;;;;24.48;6.82;;;5.10;99.90;;;;;;4997380;28;20315;-83
2024/03/07 00:56:21;;;;;;;23.70;7.30;;;5.00;99.90;;;;;;4997664;28;20629;-83
2024/03/07 00:58:48;;;;;;;25.55;6.85;;;4.90;99.90;;;;;;4979950;28;20422;-83
2024/03/07 01:01:15;;;;;;;30.42;6.68;;;4.90;99.90;;;;;;4997273;28;20735;-83
2024/03/07 01:03:41;;;;;;;32.15;7.95;;;4.90;99.90;;;;;;4979372;28;20645;-84
2024/03/07 01:06:06;;;;;;;22.90;6.67;;;4.80;99.90;;;;;;4997089;28;20194;-84
2024/03/07 01:08:32;;;;;;;23.63;6.00;;;4.80;99.90;;;;;;4997000;28;20911;-84
2024/03/07 01:10:58;;;;;;;19.40;5.93;;;4.70;99.90;;;;;;4996541;28;20926;-83
2024/03/07 01:13:24;;;;;;;25.80;7.65;;;4.70;99.90;;;;;;4995555;28;20174;-83
2024/03/07 01:15:50;;;;;;;29.80;7.50;;;4.70;99.90;;;;;;4995296;28;20261;-83
2024/03/07 01:18:17;;;;;;;25.65;6.93;;;4.60;99.90;;;;;;4995290;28;20172;-84
2024/03/07 01:20:43;;;;;;;23.25;5.93;;;4.60;99.90;;;;;;4996540;28;20191;-83
2024/03/07 01:23:08;;;;;;;20.73;6.10;;;4.60;99.90;;;;;;4996698;28;20518;-84
2024/03/07 01:25:34;;;;;;;24.97;7.63;;;4.50;99.90;;;;;;4996427;28;20449;-83
2024/03/07 01:28:00;;;;;;;23.60;7.20;;;4.50;99.90;;;;;;4997498;28;20197;-83
2024/03/07 01:30:28;;;;;;;23.42;7.93;;;4.50;99.90;;;;;;4996935;28;20422;-83
2024/03/07 01:32:54;;;;;;;24.05;7.75;;;4.50;99.90;;;;;;4996732;28;20167;-83
2024/03/07 01:35:20;;;;;;;22.83;6.53;;;4.50;99.90;;;;;;4995344;28;20171;-83
2024/03/07 01:37:46;;;;;;;25.40;7.85;;;4.40;99.90;;;;;;4997424;28;20174;-84
2024/03/07 01:40:14;;;;;;;25.77;8.07;;;4.40;99.90;;;;;;4999678;28;20187;-84
2024/03/07 01:42:40;;;;;;;24.45;7.20;;;4.30;99.90;;;;;;4999717;28;20644;-84
2024/03/07 01:45:08;;;;;;;29.83;9.30;;;4.30;99.90;;;;;;4998768;28;20683;-84
2024/03/07 01:47:36;;;;;;;22.60;6.63;;;4.30;99.90;;;;;;4998487;28;20281;-84
2024/03/07 01:50:03;;;;;;;23.75;6.38;;;4.30;99.90;;;;;;4999185;28;20164;-84
2024/03/07 01:52:30;;;;;;;23.02;7.47;;;4.30;99.90;;;;;;4997439;28;20186;-84
2024/03/07 01:54:56;;;;;;;20.40;5.90;;;4.30;99.90;;;;;;4999490;28;20205;-84
2024/03/07 01:57:22;;;;;;;25.73;7.57;;;4.20;99.90;;;;;;4998651;28;20201;-84
2024/03/07 01:59:50;;;;;;;22.70;7.55;;;4.20;99.90;;;;;;4999080;28;20201;-83
2024/03/07 02:02:17;;;;;;;28.08;8.65;;;4.20;99.90;;;;;;4998773;28;20178;-84
2024/03/07 02:04:43;;;;;;;19.48;6.47;;;4.20;99.90;;;;;;4999270;28;20163;-84
2024/03/07 02:07:11;;;;;;;25.20;9.07;;;4.20;99.90;;;;;;4982452;28;20202;-84
2024/03/07 02:09:37;;;;;;;24.38;6.40;;;4.10;99.90;;;;;;4998959;28;20163;-84
2024/03/07 02:12:03;;;;;;;27.58;7.55;;;4.10;99.90;;;;;;4998832;28;20184;-84
2024/03/07 02:14:29;;;;;;;29.17;8.50;;;4.10;99.90;;;;;;4997632;28;20174;-84
2024/03/07 02:16:58;;;;;;;28.27;8.45;;;4.00;99.90;;;;;;4980864;28;20206;-84
2024/03/07 02:19:24;;;;;;;20.33;6.80;;;4.00;99.90;;;;;;5002113;28;20178;-84
2024/03/07 02:21:50;;;;;;;30.07;7.30;;;4.00;99.90;;;;;;5002556;28;20198;-84
2024/03/07 02:24:16;;;;;;;30.37;7.77;;;4.00;99.90;;;;;;5002138;28;20402;-84
2024/03/07 02:26:42;;;;;;;25.73;7.43;;;3.90;99.90;;;;;;5002733;28;20671;-84
2024/03/07 02:29:08;;;;;;;24.05;6.55;;;3.90;99.90;;;;;;4984904;28;20438;-84
2024/03/07 02:31:37;;;;;;;29.13;8.00;;;3.90;99.90;;;;;;5002734;28;20525;-84
2024/03/07 02:34:07;;;;;;;21.25;5.30;;;3.90;99.90;;;;;;5001989;28;20163;-84
2024/03/07 02:36:33;;;;;;;24.35;7.68;;;3.90;99.90;;;;;;5002498;28;20175;-84
2024/03/07 02:39:00;;;;;;;27.55;6.85;;;3.80;99.90;;;;;;5002031;28;20198;-84
2024/03/07 02:41:26;;;;;;;24.38;6.45;;;3.90;99.90;;;;;;5002334;28;20608;-84
2024/03/07 02:43:52;;;;;;;22.58;7.40;;;3.80;99.90;;;;;;4984542;28;20206;-84
2024/03/07 02:46:19;;;;;;;20.75;5.85;;;3.80;99.90;;;;;;5002219;28;20608;-84
2024/03/07 02:48:45;;;;;;;23.35;7.05;;;3.80;99.90;;;;;;5003320;28;20164;-84
2024/03/07 02:51:11;;;;;;;22.45;5.88;;;3.80;99.90;;;;;;5001048;28;20199;-83
2024/03/07 02:53:38;;;;;;;22.95;7.90;;;3.70;99.90;;;;;;4999214;28;20167;-83
2024/03/07 02:56:07;;;;;;;25.08;9.77;;;3.70;99.90;;;;;;4998896;28;20229;-83
2024/03/07 02:58:33;;;;;;;22.20;6.80;;;3.70;99.90;;;;;;4982494;28;20221;-83
2024/03/07 03:01:00;;;;;;;20.30;7.23;;;3.70;99.90;;;;;;4997805;28;20281;-83
2024/03/07 03:03:32;;;;;;;29.40;7.95;;;3.70;99.90;;;;;;4999270;28;20406;-83
2024/03/07 03:05:58;;;;;;;20.80;6.05;;;3.60;99.90;;;;;;4999323;28;20230;-84
2024/03/07 03:08:24;;;;;;;23.98;6.57;;;3.60;99.90;;;;;;4999360;28;20553;-83
2024/03/07 03:10:51;;;;;;;30.27;7.40;;;3.60;99.90;;;;;;4999201;28;20190;-84
2024/03/07 03:13:17;;;;;;;23.80;6.35;;;3.60;99.90;;;;;;4999097;28;20160;-84
2024/03/07 03:15:43;;;;;;;18.75;4.75;;;3.50;99.90;;;;;;4999245;28;20218;-83
2024/03/07 03:18:09;;;;;;;22.47;6.50;;;3.50;99.90;;;;;;4999760;28;20195;-82
2024/03/07 03:20:38;;;;;;;24.88;9.05;;;3.50;99.90;;;;;;4981565;28;20458;-83
2024/03/07 03:23:05;;;;;;;24.63;7.40;;;3.50;99.90;;;;;;4998577;28;20190;-82
2024/03/07 03:25:34;;;;;;;27.25;6.88;;;3.40;99.90;;;;;;4998411;28;20168;-83
2024/03/07 03:28:03;;;;;;;27.33;7.85;;;3.40;99.90;;;;;;4998675;28;20171;-82
2024/03/07 03:30:29;;;;;;;23.27;6.35;;;3.40;99.90;;;;;;4997317;28;20183;-83
2024/03/07 03:32:55;;;;;;;23.30;6.63;;;3.40;99.90;;;;;;4998543;28;20182;-83
2024/03/07 03:35:21;;;;;;;26.20;7.33;;;3.30;99.90;;;;;;4998215;28;20171;-83
2024/03/07 03:37:46;;;;;;;24.10;7.10;;;3.30;99.90;;;;;;4998443;28;20405;-83
2024/03/07 03:40:12;;;;;;;25.53;7.63;;;3.30;99.90;;;;;;4998067;28;20422;-83
2024/03/07 03:42:39;;;;;;;23.08;6.45;;;3.30;99.90;;;;;;4997889;28;20206;-83
2024/03/07 03:45:06;;;;;;;27.33;7.18;;;3.30;99.90;;;;;;4998640;28;20245;-82
2024/03/07 03:47:37;;;;;;;23.55;8.10;;;3.30;99.90;;;;;;4998462;28;20187;-83
2024/03/07 03:50:04;;;;;;;24.88;7.30;;;3.30;99.90;;;;;;4998033;28;20167;-83
2024/03/07 03:52:30;;;;;;;24.33;7.93;;;3.20;99.90;;;;;;4981194;28;20193;-83
2024/03/07 03:54:56;;;;;;;19.90;6.40;;;3.20;99.90;;;;;;4998517;28;20164;-83
2024/03/07 03:57:22;;;;;;;20.90;7.47;;;3.20;99.90;;;;;;4981927;28;20171;-83
2024/03/07 03:59:48;;;;;;;22.47;7.07;;;3.10;99.90;;;;;;4980855;28;20545;-83
2024/03/07 04:02:13;;;;;;;25.17;7.33;;;3.10;99.90;;;;;;4981098;28;20187;-84
2024/03/07 04:04:40;;;;;;;25.00;7.37;;;3.10;99.90;;;;;;5000541;28;20245;-84
2024/03/07 04:07:06;;;;;;;25.77;7.03;;;3.10;99.90;;;;;;5000117;28;20553;-84
2024/03/07 04:09:31;;;;;;;24.02;8.20;;;3.10;99.90;;;;;;5000228;28;20187;-84
2024/03/07 04:11:59;;;;;;;26.87;8.10;;;3.10;99.90;;;;;;5000203;28;20191;-84
2024/03/07 04:14:25;;;;;;;30.70;7.45;;;3.10;99.90;;;;;;5000053;28;20164;-84
2024/03/07 04:16:51;;;;;;;24.02;6.82;;;3.10;99.90;;;;;;5000274;28;20202;-84
2024/03/07 04:19:20;;;;;;;25.30;7.43;;;3.10;99.90;;;;;;5000503;28;20628;-84
2024/03/07 04:21:46;;;;;;;26.95;8.15;;;3.10;99.90;;;;;;4982478;28;20191;-84
2024/03/07 04:24:13;;;;;;;24.07;7.80;;;3.10;99.90;;;;;;5000237;28;20537;-84
2024/03/07 04:26:41;;;;;;;30.40;8.63;;;3.00;99.90;;;;;;4998688;28;20446;-84
2024/03/07 04:29:10;;;;;;;20.55;6.32;;;3.00;99.90;;;;;;5000117;28;20162;-84
2024/03/07 04:31:37;;;;;;;22.92;6.80;;;3.00;99.90;;;;;;4998776;28;20215;-84
2024/03/07 04:34:02;;;;;;;25.70;5.72;;;3.00;99.90;;;;;;5000714;28;20191;-84
2024/03/07 04:36:28;;;;;;;23.23;6.77;;;3.00;99.90;;;;;;4999759;28;20684;-84
2024/03/07 04:38:54;;;;;;;24.08;7.72;;;2.90;99.90;;;;;;5000266;28;20174;-84
2024/03/07 04:41:20;;;;;;;23.40;7.53;;;2.90;99.90;;;;;;4999471;28;20199;-84
2024/03/07 04:43:46;;;;;;;27.00;7.63;;;2.80;99.90;;;;;;4982856;28;20257;-84
2024/03/07 04:46:12;;;;;;;26.53;8.30;;;2.80;99.90;;;;;;5000178;28;20186;-84
2024/03/07 04:48:38;;;;;;;24.53;7.43;;;2.80;99.90;;;;;;4999691;28;20402;-84
2024/03/07 04:51:03;;;;;;;24.23;6.47;;;2.70;99.90;;;;;;4999593;28;20298;-84
2024/03/07 04:53:29;;;;;;;29.47;9.13;;;2.70;99.90;;;;;;4999775;28;20203;-84
2024/03/07 04:55:55;;;;;;;20.00;5.80;;;2.70;99.90;;;;;;4999904;28;20518;-84
2024/03/07 04:58:22;;;;;;;20.25;7.13;;;2.70;99.90;;;;;;4982091;28;20417;-84
2024/03/07 05:00:50;;;;;;;29.55;6.38;;;2.70;99.90;;;;;;4982211;28;20191;-84
2024/03/07 05:03:16;;;;;;;27.42;6.20;;;2.60;99.90;;;;;;5000064;28;20167;-84
2024/03/07 05:05:41;;;;;;;24.07;8.40;;;2.60;99.90;;;;;;4999693;28;20687;-84
2024/03/07 05:08:07;;;;;;;21.73;7.47;;;2.60;99.90;;;;;;5000047;28;20170;-83
2024/03/07 05:10:33;;;;;;;23.63;6.83;;;2.50;99.90;;;;;;4999573;28;20175;-84
2024/03/07 05:12:58;;;;;;;25.90;6.60;;;2.60;99.90;;;;;;4999648;28;20523;-84
2024/03/07 05:15:25;;;;;;;21.80;6.73;;;2.60;99.90;;;;;;4998023;28;20194;-83
2024/03/07 05:17:52;;;;;;;20.45;5.97;;;2.60;99.90;;;;;;4997647;28;20163;-82
2024/03/07 05:20:18;;;;;;;23.10;7.85;;;2.60;99.90;;;;;;4997224;28;20179;-83
2024/03/07 05:22:47;;;;;;;20.02;6.40;;;2.50;99.90;;;;;;4997644;28;20163;-83
2024/03/07 05:25:13;;;;;;;22.63;7.18;;;2.50;99.90;;;;;;4996644;28;20632;-83
2024/03/07 05:27:39;;;;;;;19.90;7.47;;;2.50;99.90;;;;;;4979753;28;20206;-83
2024/03/07 05:30:05;;;;;;;23.80;6.53;;;2.50;99.90;;;;;;4995882;28;20213;-83
2024/03/07 05:32:34;;;;;;;19.80;5.60;;;2.50;99.90;;;;;;4997131;28;20410;-83
2024/03/07 05:34:59;;;;;;;19.65;6.00;;;2.60;99.90;;;;;;4979565;28;20171;-83
2024/03/07 05:37:25;;;;;;;28.03;7.20;;;2.60;99.90;;;;;;4980216;28;20175;-83
2024/03/07 05:39:51;;;;;;;21.53;6.50;;;2.60;99.90;;;;;;4997467;28;20174;-83
2024/03/07 05:42:18;;;;;;;24.35;7.25;;;2.70;99.90;;;;;;4996742;28;20636;-84
2024/03/07 05:44:44;;;;;;;19.73;5.40;;;2.70;99.90;;;;;;4980338;28;20179;-84
2024/03/07 05:47:10;;;;;;;22.80;7.18;;;2.70;99.90;;;;;;4997852;28;20673;-83
2024/03/07 05:49:39;;;;;;;23.40;6.60;;;2.80;99.90;;;;;;4997636;28;20171;-82
2024/03/07 05:52:08;;;;;;;25.60;7.35;;;2.90;99.90;;;;;;4997715;28;20450;-83
2024/03/07 05:54:34;;;;;;;20.38;6.15;;;2.90;99.90;;;;;;4986002;28;20178;-83
2024/03/07 05:57:01;;;;;;;20.13;6.72;;;3.00;99.90;;;;;;5003868;28;20563;-83
2024/03/07 05:59:31;;;;;;;24.67;7.60;;;3.10;99.90;;;;;;5003975;28;20167;-83
2024/03/07 06:01:57;;;;;;;19.48;6.10;;;3.10;99.90;;;;;;4986707;28;20241;-84
2024/03/07 06:04:23;;;;;;;23.90;8.00;;;3.20;99.90;;;;;;5003504;28;20167;-83
2024/03/07 06:06:48;;;;;;;23.87;7.73;;;3.30;99.90;;;;;;5004149;28;20732;-83
2024/03/07 06:09:15;;;;;;;20.50;6.47;;;3.30;99.90;;;;;;5003968;28;20187;-84
2024/03/07 06:11:44;;;;;;;22.77;8.23;;;3.30;99.90;;;;;;5004378;28;20213;-83
2024/03/07 06:14:13;;;;;;;20.17;6.32;;;3.40;99.90;;;;;;5004208;28;20179;-83
2024/03/07 06:16:40;;;;;;;26.17;6.60;;;3.40;99.90;;;;;;5004357;28;20186;-83
2024/03/07 06:19:09;;;;;;;26.35;7.72;;;3.40;99.90;;;;;;5003713;28;20163;-83
2024/03/07 06:21:36;;;;;;;24.05;5.97;;;3.40;99.90;;;;;;5004614;28;20191;-84
2024/03/07 06:24:03;;;;;;;25.35;7.78;;;3.50;99.90;;;;;;4986936;28;20633;-84
2024/03/07 06:26:59;;;;;;;22.35;6.22;;;3.50;99.90;;;;;;5006557;28;20191;-84
2024/03/07 06:29:27;;;;;;;16.55;4.75;;;3.50;99.90;;;;;;5007072;28;20143;-84
2024/03/07 06:31:54;;;;;;;27.13;7.38;;;3.50;99.90;;;;;;5004278;28;20183;-83
2024/03/07 06:34:20;;;;;;;22.27;7.88;;;3.50;99.90;;;;;;5004789;28;20147;-83
2024/03/07 06:36:45;;;;;;;20.33;5.33;;;3.60;99.90;;;;;;4987214;28;20193;-83
2024/03/07 06:39:11;;;;;;;24.87;5.73;;;3.60;99.90;;;;;;5004773;28;20169;-83
2024/03/07 06:41:38;;;;;;;20.75;5.25;;;3.60;99.90;;;;;;5004774;28;20190;-83
2024/03/07 06:44:04;;;;;;;20.77;6.55;;;3.60;99.90;;;;;;5004209;28;20174;-83
2024/03/07 06:46:31;;;;;;;27.25;7.13;;;3.70;99.90;;;;;;4986154;28;20278;-83
2024/03/07 06:48:57;;;;;;;19.30;5.95;;;3.80;99.90;;;;;;5003780;28;20575;-83
2024/03/07 06:51:24;;;;;;;18.80;5.40;;;3.80;99.90;;;;;;5003608;28;20203;-83
2024/03/07 06:53:50;;;;;;;21.17;6.18;;;3.90;99.90;;;;;;5003231;28;20507;-82
2024/03/07 06:56:16;;;;;;;17.20;4.90;;;3.90;99.90;;;;;;4984831;28;20202;-83
2024/03/07 06:58:44;;;;;;;24.83;6.75;;;3.90;99.90;;;;;;5003464;28;20406;-83
2024/03/07 07:01:12;;;;;;;20.27;5.80;;;3.90;99.90;;;;;;5003739;28;20198;-83
2024/03/07 07:03:37;;;;;;;19.67;5.97;;;3.90;99.90;;;;;;5003473;28;20163;-83
2024/03/07 07:06:05;;;;;;;26.90;7.83;;;3.90;99.90;;;;;;4999750;28;20206;-83
2024/03/07 07:08:32;;;;;;;24.63;6.68;;;3.90;99.90;;;;;;5001079;28;20517;-83
2024/03/07 07:10:58;;;;;;;24.88;7.35;;;4.00;99.90;;;;;;5000151;28;20187;-83
2024/03/07 07:13:23;;;;;;;20.00;5.43;;;4.10;99.90;;;;;;4982929;28;20540;-83
2024/03/07 07:15:50;;;;;;;20.73;5.60;;;4.20;99.90;;;;;;5000732;28;20414;-83
2024/03/07 07:18:16;;;;;;;21.33;6.25;;;4.30;99.90;;;;;;4999867;28;20652;-83
2024/03/07 07:20:42;;;;;;;22.17;6.90;;;4.40;99.90;;;;;;4999371;28;20191;-83
2024/03/07 07:23:07;;;;;;;22.10;7.10;;;4.60;99.90;;;;;;5001362;28;20176;-83
2024/03/07 07:25:33;;;;;;;27.83;10.03;;;4.70;99.90;;;;;;5000514;28;20416;-83
2024/03/07 07:27:59;;;;;;;25.53;8.50;;;4.80;99.90;;;;;;4999843;28;20406;-83
2024/03/07 07:30:26;;;;;;;25.95;7.18;;;4.90;99.90;;;;;;4982677;28;20621;-84
2024/03/07 07:32:56;;;;;;;26.90;6.93;;;5.00;99.90;;;;;;5000378;28;20183;-83
2024/03/07 07:35:22;;;;;;;21.85;6.55;;;5.00;99.90;;;;;;5000684;28;20170;-83
2024/03/07 07:37:53;;;;;;;23.88;7.53;;;5.00;99.90;;;;;;4999784;28;20172;-83
2024/03/07 07:40:22;;;;;;;35.03;8.55;;;5.00;99.90;;;;;;4981260;28;20195;-83
2024/03/07 07:42:51;;;;;;;25.70;8.60;;;5.10;99.90;;;;;;4998300;28;20163;-82
2024/03/07 07:45:17;;;;;;;23.83;7.40;;;5.00;99.90;;;;;;4998137;28;20641;-83
2024/03/07 07:47:51;;;;;;;22.33;5.47;;;5.00;99.90;;;;;;4998326;28;20249;-82
2024/03/07 07:50:19;;;;;;;20.10;7.03;;;5.00;99.90;;;;;;4998393;28;20191;-83
2024/03/07 07:52:48;;;;;;;21.05;6.40;;;5.00;99.90;;;;;;4998394;28;20183;-83
2024/03/07 07:55:14;;;;;;;23.20;7.32;;;5.00;99.90;;;;;;4999215;28;20183;-83
2024/03/07 07:57:44;;;;;;;25.70;8.82;;;5.00;99.90;;;;;;4998789;28;20664;-83
2024/03/07 08:00:23;;;;;;;23.88;6.53;;;5.00;99.90;;;;;;4998346;28;20233;-83
2024/03/07 08:02:57;;;;;;;22.17;6.05;;;5.00;99.90;;;;;;4998693;28;20152;-82
2024/03/07 08:05:25;;;;;;;24.58;6.85;;;5.10;99.90;;;;;;4998283;28;20240;-83
2024/03/07 08:07:52;;;;;;;23.52;8.57;;;5.20;99.90;;;;;;4997366;28;20173;-83
2024/03/07 08:10:23;;;;;;;23.13;7.07;;;5.30;99.90;;;;;;4997505;28;20197;-82
2024/03/07 08:12:49;;;;;;;25.80;8.70;;;5.30;99.90;;;;;;4979017;28;20241;-83
2024/03/07 08:15:18;;;;;;;24.92;9.25;;;5.40;99.90;;;;;;4997851;28;20163;-83
2024/03/07 08:17:48;;;;;;;25.15;8.40;;;5.50;99.90;;;;;;4980365;28;20167;-83
2024/03/07 08:20:20;;;;;;;26.35;6.22;;;5.50;99.90;;;;;;4979574;28;20225;-82
2024/03/07 08:22:46;;;;;;;22.45;6.90;;;5.60;99.90;;;;;;4997249;28;20187;-83
2024/03/07 08:25:15;;;;;;;24.13;7.50;;;5.60;99.90;;;;;;4997692;28;20197;-82
2024/03/07 08:27:44;;;;;;;23.30;8.30;;;5.70;99.90;;;;;;4996308;28;20249;-83
2024/03/07 08:30:14;;;;;;;20.15;6.43;;;5.80;99.90;;;;;;4997239;28;20553;-83
2024/03/07 08:32:40;;;;;;;22.48;7.97;;;5.80;98.70;;;;;;4997170;28;20640;-83
2024/03/07 08:35:09;;;;;;;27.95;7.28;;;5.90;99.90;;;;;;4996473;28;20198;-83
2024/03/07 08:37:44;;;;;;;25.35;7.93;;;6.00;99.90;;;;;;4996461;28;20170;-83
2024/03/07 08:40:10;;;;;;;22.17;6.72;;;6.10;97.20;;;;;;4997036;28;20190;-83
2024/03/07 08:42:41;;;;;;;26.75;8.18;;;6.10;93.10;;;;;;4995432;28;20721;-83
2024/03/07 08:45:10;;;;;;;21.30;5.93;;;6.20;86.70;;;;;;4996754;28;20194;-83
2024/03/07 08:47:37;;;;;;;29.33;7.28;;;6.20;82.50;;;;;;4995578;28;20568;-83
2024/03/07 08:50:08;;;;;;;25.77;8.38;;;6.30;50.80;;;;;;4998025;28;20164;-84
2024/03/07 08:52:39;;;;;;;29.55;9.50;;;6.30;37.00;;;;;;5000477;28;20653;-84
2024/03/07 08:55:05;;;;;;;20.40;6.70;;;6.40;45.20;;;;;;4998368;28;20509;-84
2024/03/07 08:57:31;;;;;;;21.00;6.45;;;6.50;45.50;;;;;;4998612;28;20181;-84
2024/03/07 08:59:57;;;;;;;25.53;6.47;;;6.60;25.10;;;;;;4998056;28;20597;-83
2024/03/07 09:02:23;;;;;;;22.25;6.13;;;6.60;1.00;;;;;;4996545;28;20568;-84
2024/03/07 09:04:49;;;;;;;17.20;5.43;;;6.60;1.00;;;;;;4998315;28;20171;-84
2024/03/07 09:07:17;;;;;;;19.88;6.05;;;6.70;1.00;;;;;;4997848;28;20994;-83
2024/03/07 09:09:45;;;;;;;18.85;6.15;;;6.80;1.00;;;;;;4996914;28;20763;-83
2024/03/07 09:12:11;;;;;;;22.60;6.50;;;6.80;1.00;;;;;;4998217;28;20229;-83
2024/03/07 09:14:37;;;;;;;22.17;5.10;;;6.90;1.00;;;;;;4997872;28;20569;-83
2024/03/07 09:17:04;;;;;;;17.67;5.25;;;6.90;1.00;;;;;;4998085;28;20406;-83
2024/03/07 09:19:33;;;;;;;19.88;5.88;;;6.90;1.00;;;;;;4997852;28;20241;-83
2024/03/07 09:21:59;;;;;;;21.45;6.20;;;7.00;1.00;;;;;;4997527;28;20187;-83
2024/03/07 09:24:25;;;;;;;18.38;4.93;;;7.00;1.00;;;;;;4981002;28;20175;-83
2024/03/07 09:26:52;;;;;;;21.07;6.23;;;7.00;1.00;;;;;;4998133;28;20217;-82
2024/03/07 09:29:19;;;;;;;20.65;6.25;;;7.10;1.00;;;;;;4997270;28;20159;-83
2024/03/07 09:31:46;;;;;;;22.35;6.60;;;7.10;1.00;;;;;;4997511;28;20274;-83
2024/03/07 09:34:12;;;;;;;19.55;5.38;;;7.20;1.00;;;;;;4997642;28;20171;-83
2024/03/07 09:36:39;;;;;;;22.90;7.70;;;7.20;1.00;;;;;;4998050;28;20164;-83
2024/03/07 09:39:05;;;;;;;16.77;4.85;;;7.30;1.00;;;;;;4997404;28;20245;-82
2024/03/07 09:41:32;;;;;;;23.27;5.95;;;7.40;1.00;;;;;;4997093;28;20191;-83
2024/03/07 09:43:59;;;;;;;18.35;5.30;;;7.50;1.00;;;;;;4997421;28;20167;-83
2024/03/07 09:46:26;;;;;;;20.13;5.80;;;7.60;1.00;;;;;;4998199;28;20187;-82
2024/03/07 09:48:54;;;;;;;20.48;6.75;;;7.50;1.00;;;;;;4997802;28;20167;-83
2024/03/07 09:51:24;;;;;;;22.65;6.05;;;7.50;1.00;;;;;;4979883;28;20213;-83
2024/03/07 09:53:52;;;;;;;19.27;5.40;;;7.50;1.00;;;;;;4979201;28;20185;-83
2024/03/07 09:56:21;;;;;;;19.63;5.38;;;7.60;1.00;;;;;;4997501;28;20163;-83
2024/03/07 09:58:51;;;;;;;20.52;5.00;;;7.60;1.00;;;;;;4997146;28;20537;-83
2024/03/07 10:01:21;;;;;;;22.30;7.38;;;7.60;1.00;;;;;;4997172;28;20211;-82
2024/03/07 10:03:48;;;;;;;20.17;5.63;;;7.80;1.00;;;;;;4997246;28;20163;-83
2024/03/07 10:06:16;;;;;;;23.73;5.70;;;7.80;1.00;;;;;;4996460;28;20195;-81
2024/03/07 10:08:43;;;;;;;20.95;5.72;;;7.90;1.00;;;;;;4978497;28;20195;-82
2024/03/07 10:11:09;;;;;;;22.40;5.55;;;8.00;1.00;;;;;;4995655;28;20631;-82
2024/03/07 10:13:41;;;;;;;19.27;5.20;;;8.00;1.00;;;;;;4995977;28;20245;-82
2024/03/07 10:16:07;;;;;;;20.50;8.00;;;8.10;1.00;;;;;;4995231;28;20422;-83
2024/03/07 10:18:45;;;;;;;17.98;5.65;;;8.20;1.00;;;;;;4995495;28;20233;-83
2024/03/07 10:21:12;;;;;;;20.75;6.05;;;8.10;1.00;;;;;;4977682;28;20210;-83
2024/03/07 10:23:38;;;;;;;21.45;5.47;;;8.10;1.00;;;;;;4995842;28;20199;-83
2024/03/07 10:26:04;;;;;;;22.97;6.70;;;8.10;1.00;;;;;;4994019;28;20257;-82
2024/03/07 10:28:31;;;;;;;20.23;6.22;;;8.20;1.00;;;;;;4994938;28;20564;-82
2024/03/07 10:30:57;;;;;;;19.55;5.93;;;8.20;1.00;;;;;;4995014;28;20184;-82
2024/03/07 10:33:28;;;;;;;22.13;7.22;;;8.20;1.00;;;;;;4993992;28;20195;-82
2024/03/07 10:35:53;;;;;;;18.60;5.07;;;8.20;1.00;;;;;;4995661;28;20655;-82
2024/03/07 10:38:19;;;;;;;19.43;5.90;;;8.30;1.00;;;;;;4993683;28;20175;-82
2024/03/07 10:40:58;;;;;;;22.20;6.10;;;8.50;1.00;;;;;;4981511;28;20202;-82
2024/03/07 10:43:27;;;;;;;20.48;5.43;;;8.60;1.00;;;;;;4999147;28;20525;-82
2024/03/07 10:45:56;;;;;;;24.35;7.22;;;8.80;1.00;;;;;;4998662;28;20644;-82
2024/03/07 10:48:28;;;;;;;22.23;6.10;;;8.90;1.00;;;;;;4999026;28;20167;-83
2024/03/07 10:51:32;;;;;;;21.23;5.20;;;8.90;1.00;;;;;;4999199;28;20195;-82
2024/03/07 10:54:02;;;;;;;22.98;6.38;;;9.00;1.00;;;;;;4998923;28;20163;-83
2024/03/07 10:56:46;;;;;;;23.60;5.80;;;9.20;1.00;;;;;;4998693;28;20160;-82
2024/03/07 10:59:20;;;;;;;22.83;5.28;;;9.30;1.00;;;;;;4998753;28;20167;-83
2024/03/07 11:02:04;;;;;;;21.83;5.60;;;9.30;1.00;;;;;;4980676;28;20199;-83
2024/03/07 11:04:31;;;;;;;19.58;5.32;;;9.40;1.00;;;;;;4998145;28;20147;-83
2024/03/07 11:07:00;;;;;;;22.17;6.40;;;9.50;1.00;;;;;;4998382;28;20263;-81
2024/03/07 11:09:32;;;;;;;22.98;6.63;;;9.70;1.00;;;;;;4998257;28;20214;-83
2024/03/07 11:12:03;;;;;;;23.10;6.22;;;9.90;1.00;;;;;;4998433;28;20618;-83
2024/03/07 11:14:31;;;;;;;20.77;6.88;;;9.90;1.00;;;;;;4996996;28;20251;-82
2024/03/07 11:16:57;;;;;;;20.67;6.18;;;10.10;1.00;;;;;;4998406;28;20171;-82
2024/03/07 11:19:31;;;;;;;25.45;6.65;;;10.20;1.00;;;;;;4998584;28;20163;-83
2024/03/07 11:21:59;;;;;;;19.88;5.75;;;10.40;1.00;;;;;;5002602;28;20238;-83
2024/03/07 11:24:32;;;;;;;20.23;5.85;;;10.20;1.00;;;;;;5002296;28;20163;-84
2024/03/07 11:26:59;;;;;;;19.05;5.53;;;10.10;1.00;;;;;;4982427;28;20242;-83
2024/03/07 11:29:46;;;;;;;23.23;7.95;;;10.20;1.00;;;;;;5000143;28;20653;-84
2024/03/07 11:32:15;;;;;;;19.58;5.32;;;10.10;1.00;;;;;;4999152;28;20661;-83
2024/03/07 11:34:46;;;;;;;19.40;6.55;;;9.90;1.00;;;;;;4998428;28;20218;-84
2024/03/07 11:37:36;;;;;;;21.15;5.65;;;9.70;1.00;;;;;;4999970;28;20609;-83
2024/03/07 11:40:08;;;;;;;22.90;6.07;;;9.60;1.00;;;;;;4999128;28;20222;-84
2024/03/07 11:42:35;;;;;;;21.35;6.22;;;9.60;1.00;;;;;;4999393;28;20151;-83
2024/03/07 11:45:05;;;;;;;21.10;4.88;;;9.60;1.00;;;;;;4999575;28;20171;-84
2024/03/07 11:47:38;;;;;;;18.85;5.30;;;9.60;1.00;;;;;;4999627;28;20195;-83
2024/03/07 11:50:11;;;;;;;19.90;5.70;;;9.60;1.00;;;;;;4998173;28;20164;-83
2024/03/07 11:52:41;;;;;;;19.55;6.32;;;9.60;1.00;;;;;;4997319;28;20267;-84
2024/03/07 11:55:08;;;;;;;21.05;6.22;;;9.60;1.00;;;;;;4998996;28;20143;-84
2024/03/07 11:57:37;;;;;;;21.33;5.47;;;9.70;1.00;;;;;;4981906;28;20172;-84
2024/03/07 12:00:10;;;;;;;18.83;5.40;;;9.70;1.00;;;;;;4999113;28;20533;-84
2024/03/07 12:02:37;;;;;;;20.80;6.47;;;9.60;1.00;;;;;;4997551;28;20225;-84
2024/03/07 12:05:07;;;;;;;18.27;4.90;;;9.70;1.00;;;;;;4998866;28;20175;-84
2024/03/07 12:07:33;;;;;;;21.23;6.70;;;9.70;1.00;;;;;;4998488;28;20198;-84
2024/03/07 12:10:03;;;;;;;22.48;6.57;;;9.60;1.00;;;;;;4981420;28;20173;-83
2024/03/07 12:12:29;;;;;;;21.52;6.88;;;9.50;1.00;;;;;;4999446;28;20227;-83
2024/03/07 12:14:55;;;;;;;22.55;5.78;;;9.60;1.00;;;;;;4997345;28;20175;-84
2024/03/07 12:17:22;;;;;;;22.73;6.18;;;9.70;1.00;;;;;;4999304;28;20163;-83
2024/03/07 12:19:52;;;;;;;22.75;6.93;;;9.70;1.00;;;;;;4998973;28;20221;-84
2024/03/07 12:22:24;;;;;;;19.02;5.30;;;9.60;1.00;;;;;;4998662;28;20175;-84
2024/03/07 12:25:03;;;;;;;21.58;5.18;;;9.70;1.00;;;;;;4998442;28;20194;-84
2024/03/07 12:27:29;;;;;;;17.20;5.55;;;9.80;1.00;;;;;;4998090;28;20187;-83
2024/03/07 12:29:55;;;;;;;21.30;6.28;;;10.10;1.00;;;;;;4998316;28;20167;-83
2024/03/07 12:32:21;;;;;;;20.53;4.97;;;10.40;1.00;;;;;;4981007;28;20652;-84
2024/03/07 12:34:47;;;;;;;19.90;6.27;;;10.80;1.00;;;;;;4998812;28;20395;-83
2024/03/07 12:37:16;;;;;;;19.90;5.10;;;11.10;1.00;;;;;;4998924;28;20242;-83
2024/03/07 12:39:46;;;;;;;18.48;4.75;;;11.40;1.00;;;;;;4997863;28;20168;-83
2024/03/07 12:42:19;;;;;;;20.40;5.03;;;11.40;1.00;;;;;;4997876;28;20191;-83
2024/03/07 12:44:46;;;;;;;17.80;4.88;;;11.10;1.00;;;;;;4997908;28;20229;-84
2024/03/07 12:47:16;;;;;;;15.88;4.32;;;10.90;1.00;;;;;;4997656;28;20241;-83
2024/03/07 12:49:51;;;;;;;20.80;5.38;;;10.80;1.00;;;;;;4997225;28;20191;-83
2024/03/07 12:52:16;;;;;;;20.88;4.38;;;10.60;1.00;;;;;;4995763;28;20244;-83
2024/03/07 12:54:43;;;;;;;17.25;4.70;;;10.50;1.00;;;;;;4995507;28;20195;-83